sensor_id;sensor_type;location;lat;lon;timestamp;pressure;altitude;pressure_sealevel;temperature;humidity
50852;BME280;43953;45.508;-122.806;2023-08-06T00:00:02;101048.00;;;26.75;46.13
50852;BME280;43953;45.508;-122.806;2023-08-06T00:00:34;101036.97;;;26.75;46.12
50852;BME280;43953;45.508;-122.806;2023-08-06T00:01:06;101043.00;;;26.77;46.35
50852;BME280;43953;45.508;-122.806;2023-08-06T00:01:38;101044.94;;;26.76;46.20
50852;BME280;43953;45.508;-122.806;2023-08-06T00:02:09;101035.53;;;26.77;45.91
50852;BME280;43953;45.508;-122.806;2023-08-06T00:02:41;101039.91;;;26.78;46.29
50852;BME280;43953;45.508;-122.806;2023-08-06T00:03:13;101042.69;;;26.78;46.19
50852;BME280;43953;45.508;-122.806;2023-08-06T00:03:45;101038.78;;;26.80;46.14
50852;BME280;43953;45.508;-122.806;2023-08-06T00:04:16;101038.78;;;26.80;46.35
50852;BME280;43953;45.508;-122.806;2023-08-06T00:04:48;101049.53;;;26.81;45.96
50852;BME280;43953;45.508;-122.806;2023-08-06T00:05:19;101046.78;;;26.81;46.03
50852;BME280;43953;45.508;-122.806;2023-08-06T00:05:54;101047.59;;;26.82;46.52
50852;BME280;43953;45.508;-122.806;2023-08-06T00:06:26;101045.63;;;26.82;46.21
50852;BME280;43953;45.508;-122.806;2023-08-06T00:06:57;101050.88;;;26.84;46.30
50852;BME280;43953;45.508;-122.806;2023-08-06T00:07:29;101045.34;;;26.84;46.46
50852;BME280;43953;45.508;-122.806;2023-08-06T00:08:01;101046.16;;;26.84;46.37
50852;BME280;43953;45.508;-122.806;2023-08-06T00:08:33;101049.72;;;26.85;46.10
50852;BME280;43953;45.508;-122.806;2023-08-06T00:09:05;101046.66;;;26.86;46.27
50852;BME280;43953;45.508;-122.806;2023-08-06T00:09:36;101050.25;;;26.87;46.28
50852;BME280;43953;45.508;-122.806;2023-08-06T00:10:08;101047.47;;;26.87;46.58
50852;BME280;43953;45.508;-122.806;2023-08-06T00:10:40;101040.81;;;26.88;46.39
50852;BME280;43953;45.508;-122.806;2023-08-06T00:11:12;101046.34;;;26.88;46.53
50852;BME280;43953;45.508;-122.806;2023-08-06T00:11:44;101042.47;;;26.89;46.64
50852;BME280;43953;45.508;-122.806;2023-08-06T00:12:17;101046.03;;;26.89;46.28
50852;BME280;43953;45.508;-122.806;2023-08-06T00:12:49;101049.63;;;26.90;46.38
50852;BME280;43953;45.508;-122.806;2023-08-06T00:13:21;101042.94;;;26.91;46.31
50852;BME280;43953;45.508;-122.806;2023-08-06T00:13:52;101045.72;;;26.91;46.30
50852;BME280;43953;45.508;-122.806;2023-08-06T00:14:24;101039.91;;;26.92;46.53
50852;BME280;43953;45.508;-122.806;2023-08-06T00:14:56;101046.22;;;26.93;46.44
50852;BME280;43953;45.508;-122.806;2023-08-06T00:15:28;101044.28;;;26.93;46.78
50852;BME280;43953;45.508;-122.806;2023-08-06T00:16:10;101050.63;;;26.94;46.78
50852;BME280;43953;45.508;-122.806;2023-08-06T00:16:45;101050.31;;;26.95;46.50
50852;BME280;43953;45.508;-122.806;2023-08-06T00:17:17;101048.38;;;26.96;46.72
50852;BME280;43953;45.508;-122.806;2023-08-06T00:17:48;101049.19;;;26.96;46.28
50852;BME280;43953;45.508;-122.806;2023-08-06T00:18:20;101046.13;;;26.98;46.70
50852;BME280;43953;45.508;-122.806;2023-08-06T00:18:52;101048.88;;;26.98;46.67
50852;BME280;43953;45.508;-122.806;2023-08-06T00:19:23;101047.75;;;26.99;46.30
50852;BME280;43953;45.508;-122.806;2023-08-06T00:19:55;101053.28;;;26.99;46.57
50852;BME280;43953;45.508;-122.806;2023-08-06T00:20:27;101054.91;;;27.00;46.40
50852;BME280;43953;45.508;-122.806;2023-08-06T00:20:58;101052.13;;;27.00;45.99
50852;BME280;43953;45.508;-122.806;2023-08-06T00:21:30;101046.59;;;27.00;46.14
50852;BME280;43953;45.508;-122.806;2023-08-06T00:22:02;101049.38;;;27.00;46.21
50852;BME280;43953;45.508;-122.806;2023-08-06T00:22:35;101051.84;;;27.02;45.92
50852;BME280;43953;45.508;-122.806;2023-08-06T00:23:07;101047.13;;;27.02;46.18
50852;BME280;43953;45.508;-122.806;2023-08-06T00:23:40;101055.41;;;27.02;45.73
50852;BME280;43953;45.508;-122.806;2023-08-06T00:24:12;101050.69;;;27.03;46.09
50852;BME280;43953;45.508;-122.806;2023-08-06T00:24:44;101053.47;;;27.03;46.00
50852;BME280;43953;45.508;-122.806;2023-08-06T00:25:16;101055.13;;;27.04;45.77
50852;BME280;43953;45.508;-122.806;2023-08-06T00:25:47;101053.16;;;27.04;45.69
50852;BME280;43953;45.508;-122.806;2023-08-06T00:26:19;101051.22;;;27.05;45.79
50852;BME280;43953;45.508;-122.806;2023-08-06T00:26:51;101053.97;;;27.05;46.10
50852;BME280;43953;45.508;-122.806;2023-08-06T00:27:22;101053.97;;;27.05;46.05
50852;BME280;43953;45.508;-122.806;2023-08-06T00:27:54;101051.22;;;27.05;45.79
50852;BME280;43953;45.508;-122.806;2023-08-06T00:28:27;101054.78;;;27.05;45.69
50852;BME280;43953;45.508;-122.806;2023-08-06T00:28:59;101057.56;;;27.05;45.81
50852;BME280;43953;45.508;-122.806;2023-08-06T00:29:30;101052.03;;;27.05;46.05
50852;BME280;43953;45.508;-122.806;2023-08-06T00:30:02;101054.50;;;27.07;45.74
50852;BME280;43953;45.508;-122.806;2023-08-06T00:30:34;101053.66;;;27.06;45.95
50852;BME280;43953;45.508;-122.806;2023-08-06T00:31:06;101053.66;;;27.06;45.83
50852;BME280;43953;45.508;-122.806;2023-08-06T00:31:37;101055.31;;;27.07;45.80
50852;BME280;43953;45.508;-122.806;2023-08-06T00:32:09;101056.94;;;27.08;46.02
50852;BME280;43953;45.508;-122.806;2023-08-06T00:32:41;101051.41;;;27.08;45.76
50852;BME280;43953;45.508;-122.806;2023-08-06T00:33:12;101062.44;;;27.08;45.76
50852;BME280;43953;45.508;-122.806;2023-08-06T00:33:44;101057.75;;;27.09;45.77
50852;BME280;43953;45.508;-122.806;2023-08-06T00:34:16;101052.22;;;27.09;46.15
50852;BME280;43953;45.508;-122.806;2023-08-06T00:34:47;101054.97;;;27.09;45.83
50852;BME280;43953;45.508;-122.806;2023-08-06T00:35:22;101051.91;;;27.10;45.78
50852;BME280;43953;45.508;-122.806;2023-08-06T00:35:54;101057.13;;;27.12;46.01
50852;BME280;43953;45.508;-122.806;2023-08-06T00:36:25;101060.69;;;27.12;46.11
50852;BME280;43953;45.508;-122.806;2023-08-06T00:36:57;101056.81;;;27.13;46.16
50852;BME280;43953;45.508;-122.806;2023-08-06T00:37:29;101057.94;;;27.12;45.79
50852;BME280;43953;45.508;-122.806;2023-08-06T00:38:01;101060.41;;;27.14;45.63
50852;BME280;43953;45.508;-122.806;2023-08-06T00:38:32;101057.63;;;27.14;45.77
50852;BME280;43953;45.508;-122.806;2023-08-06T00:39:04;101061.19;;;27.14;46.00
50852;BME280;43953;45.508;-122.806;2023-08-06T00:39:36;101060.13;;;27.15;45.97
50852;BME280;43953;45.508;-122.806;2023-08-06T00:40:08;101054.59;;;27.15;45.99
50852;BME280;43953;45.508;-122.806;2023-08-06T00:40:40;101065.31;;;27.17;46.09
50852;BME280;43953;45.508;-122.806;2023-08-06T00:41:11;101056.22;;;27.16;45.90
50852;BME280;43953;45.508;-122.806;2023-08-06T00:41:43;101062.25;;;27.18;45.59
50852;BME280;43953;45.508;-122.806;2023-08-06T00:42:15;101055.09;;;27.17;45.85
50852;BME280;43953;45.508;-122.806;2023-08-06T00:42:51;101064.19;;;27.18;45.58
50852;BME280;43953;45.508;-122.806;2023-08-06T00:43:23;101056.75;;;27.18;45.72
50852;BME280;43953;45.508;-122.806;2023-08-06T00:43:55;101055.59;;;27.19;45.65
50852;BME280;43953;45.508;-122.806;2023-08-06T00:44:26;101056.41;;;27.20;45.94
50852;BME280;43953;45.508;-122.806;2023-08-06T00:44:58;101059.97;;;27.20;45.69
50852;BME280;43953;45.508;-122.806;2023-08-06T00:45:30;101064.41;;;27.21;45.57
50852;BME280;43953;45.508;-122.806;2023-08-06T00:46:05;101053.34;;;27.21;45.54
50852;BME280;43953;45.508;-122.806;2023-08-06T00:46:37;101063.25;;;27.22;45.54
50852;BME280;43953;45.508;-122.806;2023-08-06T00:47:08;101057.72;;;27.22;45.58
50852;BME280;43953;45.508;-122.806;2023-08-06T00:47:41;101053.81;;;27.23;45.72
50852;BME280;43953;45.508;-122.806;2023-08-06T00:48:13;101048.31;;;27.23;45.63
50852;BME280;43953;45.508;-122.806;2023-08-06T00:48:45;101055.47;;;27.25;45.74
50852;BME280;43953;45.508;-122.806;2023-08-06T00:49:18;101056.59;;;27.23;45.78
50852;BME280;43953;45.508;-122.806;2023-08-06T00:49:50;101054.34;;;27.26;45.71
50852;BME280;43953;45.508;-122.806;2023-08-06T00:50:22;101058.25;;;27.25;45.64
50852;BME280;43953;45.508;-122.806;2023-08-06T00:50:54;101055.97;;;27.27;45.30
50852;BME280;43953;45.508;-122.806;2023-08-06T00:51:25;101057.09;;;27.26;45.60
50852;BME280;43953;45.508;-122.806;2023-08-06T00:51:58;101062.63;;;27.26;45.32
50852;BME280;43953;45.508;-122.806;2023-08-06T00:52:30;101051.56;;;27.26;45.41
50852;BME280;43953;45.508;-122.806;2023-08-06T00:53:02;101057.91;;;27.26;45.38
50852;BME280;43953;45.508;-122.806;2023-08-06T00:53:34;101061.50;;;27.27;45.31
50852;BME280;43953;45.508;-122.806;2023-08-06T00:54:06;101057.63;;;27.28;45.20
50852;BME280;43953;45.508;-122.806;2023-08-06T00:54:37;101064.25;;;27.27;45.06
50852;BME280;43953;45.508;-122.806;2023-08-06T00:55:10;101056.78;;;27.27;45.48
50852;BME280;43953;45.508;-122.806;2023-08-06T00:55:44;101057.91;;;27.26;45.38
50852;BME280;43953;45.508;-122.806;2023-08-06T00:56:16;101061.50;;;27.27;45.19
50852;BME280;43953;45.508;-122.806;2023-08-06T00:56:48;101057.63;;;27.28;45.23
50852;BME280;43953;45.508;-122.806;2023-08-06T00:57:21;101060.38;;;27.28;45.29
50852;BME280;43953;45.508;-122.806;2023-08-06T00:57:55;101066.72;;;27.28;45.58
50852;BME280;43953;45.508;-122.806;2023-08-06T00:58:27;101056.47;;;27.29;45.23
50852;BME280;43953;45.508;-122.806;2023-08-06T00:58:59;101058.09;;;27.30;45.40
50852;BME280;43953;45.508;-122.806;2023-08-06T00:59:31;101056.47;;;27.29;45.61
50852;BME280;43953;45.508;-122.806;2023-08-06T01:00:03;101058.09;;;27.30;45.37
50852;BME280;43953;45.508;-122.806;2023-08-06T01:00:35;101057.28;;;27.29;45.31
50852;BME280;43953;45.508;-122.806;2023-08-06T01:01:07;101063.63;;;27.30;45.19
50852;BME280;43953;45.508;-122.806;2023-08-06T01:01:39;101062.00;;;27.29;45.23
50852;BME280;43953;45.508;-122.806;2023-08-06T01:02:11;101062.53;;;27.31;45.11
50852;BME280;43953;45.508;-122.806;2023-08-06T01:02:42;101063.63;;;27.30;45.49
50852;BME280;43953;45.508;-122.806;2023-08-06T01:03:14;101063.63;;;27.30;45.56
50852;BME280;43953;45.508;-122.806;2023-08-06T01:03:47;101056.19;;;27.30;45.24
50852;BME280;43953;45.508;-122.806;2023-08-06T01:04:19;101065.28;;;27.31;45.60
50852;BME280;43953;45.508;-122.806;2023-08-06T01:04:50;101062.53;;;27.31;45.63
50852;BME280;43953;45.508;-122.806;2023-08-06T01:05:22;101066.09;;;27.31;45.58
50852;BME280;43953;45.508;-122.806;2023-08-06T01:05:55;101060.56;;;27.31;45.45
50852;BME280;43953;45.508;-122.806;2023-08-06T01:06:48;101059.75;;;27.31;45.56
50852;BME280;43953;45.508;-122.806;2023-08-06T01:08:54;101058.31;;;27.33;45.40
50852;BME280;43953;45.508;-122.806;2023-08-06T01:10:23;101060.75;;;27.35;45.25
50852;BME280;43953;45.508;-122.806;2023-08-06T01:12:54;101066.16;;;27.40;45.30
50852;BME280;43953;45.508;-122.806;2023-08-06T01:13:45;101063.91;;;27.42;45.65
50852;BME280;43953;45.508;-122.806;2023-08-06T01:14:30;101067.50;;;27.42;45.70
50852;BME280;43953;45.508;-122.806;2023-08-06T01:15:17;101064.41;;;27.44;45.46
50852;BME280;43953;45.508;-122.806;2023-08-06T01:15:55;101071.56;;;27.45;45.38
50852;BME280;43953;45.508;-122.806;2023-08-06T01:16:33;101066.84;;;27.45;45.53
50852;BME280;43953;45.508;-122.806;2023-08-06T01:17:06;101070.44;;;27.46;45.37
50852;BME280;43953;45.508;-122.806;2023-08-06T01:17:39;101062.13;;;27.46;45.42
50852;BME280;43953;45.508;-122.806;2023-08-06T01:18:12;101067.66;;;27.46;45.64
50852;BME280;43953;45.508;-122.806;2023-08-06T01:18:44;101072.38;;;27.45;45.76
50852;BME280;43953;45.508;-122.806;2023-08-06T01:19:21;101071.56;;;27.45;45.54
50852;BME280;43953;45.508;-122.806;2023-08-06T01:19:53;101074.34;;;27.45;45.70
50852;BME280;43953;45.508;-122.806;2023-08-06T01:20:29;101072.69;;;27.44;45.79
50852;BME280;43953;45.508;-122.806;2023-08-06T01:21:01;101075.47;;;27.44;45.71
50852;BME280;43953;45.508;-122.806;2023-08-06T01:21:33;101073.84;;;27.43;45.49
50852;BME280;43953;45.508;-122.806;2023-08-06T01:22:05;101067.16;;;27.44;45.78
50852;BME280;43953;45.508;-122.806;2023-08-06T01:22:36;101065.22;;;27.44;45.59
50852;BME280;43953;45.508;-122.806;2023-08-06T01:23:08;101062.44;;;27.44;45.79
50852;BME280;43953;45.508;-122.806;2023-08-06T01:23:40;101065.22;;;27.44;45.80
50852;BME280;43953;45.508;-122.806;2023-08-06T01:24:13;101064.41;;;27.44;45.84
50852;BME280;43953;45.508;-122.806;2023-08-06T01:24:48;101059.69;;;27.44;45.45
50852;BME280;43953;45.508;-122.806;2023-08-06T01:25:21;101065.22;;;27.44;45.50
50852;BME280;43953;45.508;-122.806;2023-08-06T01:26:58;101057.41;;;27.47;45.34
50852;BME280;43953;45.508;-122.806;2023-08-06T01:27:49;101055.47;;;27.47;45.28
50852;BME280;43953;45.508;-122.806;2023-08-06T01:28:39;101058.22;;;27.47;45.46
50852;BME280;43953;45.508;-122.806;2023-08-06T01:29:35;101061.50;;;27.49;45.88
50852;BME280;43953;45.508;-122.806;2023-08-06T01:30:25;101057.59;;;27.50;45.98
50852;BME280;43953;45.508;-122.806;2023-08-06T01:30:59;101064.78;;;27.51;45.94
50852;BME280;43953;45.508;-122.806;2023-08-06T01:31:37;101062.84;;;27.52;45.50
50852;BME280;43953;45.508;-122.806;2023-08-06T01:32:12;101054.53;;;27.52;45.60
50852;BME280;43953;45.508;-122.806;2023-08-06T01:32:49;101061.69;;;27.53;45.72
50852;BME280;43953;45.508;-122.806;2023-08-06T01:33:22;101056.16;;;27.53;45.71
50852;BME280;43953;45.508;-122.806;2023-08-06T01:33:56;101063.66;;;27.52;45.63
50852;BME280;43953;45.508;-122.806;2023-08-06T01:34:32;101064.78;;;27.51;45.90
50852;BME280;43953;45.508;-122.806;2023-08-06T01:35:06;101063.66;;;27.52;46.38
50852;BME280;43953;45.508;-122.806;2023-08-06T01:35:39;101060.06;;;27.52;46.51
50852;BME280;43953;45.508;-122.806;2023-08-06T01:36:11;101053.41;;;27.53;47.02
50852;BME280;43953;45.508;-122.806;2023-08-06T01:36:44;101061.69;;;27.53;46.52
50852;BME280;43953;45.508;-122.806;2023-08-06T01:37:17;101055.34;;;27.52;46.47
50852;BME280;43953;45.508;-122.806;2023-08-06T01:37:49;101055.34;;;27.52;46.36
50852;BME280;43953;45.508;-122.806;2023-08-06T01:38:21;101063.66;;;27.52;46.45
50852;BME280;43953;45.508;-122.806;2023-08-06T01:38:53;101059.25;;;27.51;46.28
50852;BME280;43953;45.508;-122.806;2023-08-06T01:39:25;101065.59;;;27.52;46.49
50852;BME280;43953;45.508;-122.806;2023-08-06T01:39:59;101067.56;;;27.51;45.89
50852;BME280;43953;45.508;-122.806;2023-08-06T01:40:31;101067.22;;;27.53;46.46
50852;BME280;43953;45.508;-122.806;2023-08-06T01:41:03;101063.66;;;27.52;46.59
50852;BME280;43953;45.508;-122.806;2023-08-06T01:41:35;101061.19;;;27.51;46.73
50852;BME280;43953;45.508;-122.806;2023-08-06T01:42:07;101060.88;;;27.52;46.54
50852;BME280;43953;45.508;-122.806;2023-08-06T01:42:40;101062.03;;;27.51;46.70
50852;BME280;43953;45.508;-122.806;2023-08-06T01:43:11;101065.28;;;27.53;46.52
50852;BME280;43953;45.508;-122.806;2023-08-06T01:43:43;101055.34;;;27.52;46.49
50852;BME280;43953;45.508;-122.806;2023-08-06T01:44:16;101056.97;;;27.53;46.73
50852;BME280;43953;45.508;-122.806;2023-08-06T01:44:48;101056.16;;;27.53;46.50
50852;BME280;43953;45.508;-122.806;2023-08-06T01:45:20;101062.50;;;27.53;46.80
50852;BME280;43953;45.508;-122.806;2023-08-06T01:45:51;101063.31;;;27.54;46.90
50852;BME280;43953;45.508;-122.806;2023-08-06T01:46:23;101052.59;;;27.52;46.86
50852;BME280;43953;45.508;-122.806;2023-08-06T01:46:55;101063.31;;;27.54;47.09
50852;BME280;43953;45.508;-122.806;2023-08-06T01:47:26;101061.69;;;27.53;46.98
50852;BME280;43953;45.508;-122.806;2023-08-06T01:47:58;101058.63;;;27.54;46.70
50852;BME280;43953;45.508;-122.806;2023-08-06T01:48:30;101059.44;;;27.55;46.73
50852;BME280;43953;45.508;-122.806;2023-08-06T01:49:01;101064.16;;;27.54;46.64
50852;BME280;43953;45.508;-122.806;2023-08-06T01:49:33;101060.25;;;27.55;46.64
50852;BME280;43953;45.508;-122.806;2023-08-06T01:50:05;101064.97;;;27.55;46.59
50852;BME280;43953;45.508;-122.806;2023-08-06T01:50:37;101065.78;;;27.55;46.41
50852;BME280;43953;45.508;-122.806;2023-08-06T01:51:09;101058.28;;;27.56;46.68
50852;BME280;43953;45.508;-122.806;2023-08-06T01:51:41;101056.34;;;27.56;46.53
50852;BME280;43953;45.508;-122.806;2023-08-06T01:52:12;101070.69;;;27.58;46.62
50852;BME280;43953;45.508;-122.806;2023-08-06T01:52:44;101065.16;;;27.58;46.84
50852;BME280;43953;45.508;-122.806;2023-08-06T01:53:15;101059.63;;;27.58;46.81
50852;BME280;43953;45.508;-122.806;2023-08-06T01:53:47;101071.50;;;27.59;46.91
50852;BME280;43953;45.508;-122.806;2023-08-06T01:54:19;101061.56;;;27.58;47.14
50852;BME280;43953;45.508;-122.806;2023-08-06T01:54:51;101055.72;;;27.59;47.20
50852;BME280;43953;45.508;-122.806;2023-08-06T01:55:22;101061.75;;;27.61;47.66
50852;BME280;43953;45.508;-122.806;2023-08-06T01:55:54;101058.97;;;27.61;47.36
50852;BME280;43953;45.508;-122.806;2023-08-06T01:56:26;101060.94;;;27.61;47.21
50852;BME280;43953;45.508;-122.806;2023-08-06T01:56:57;101054.25;;;27.62;47.11
50852;BME280;43953;45.508;-122.806;2023-08-06T01:57:29;101057.84;;;27.62;46.87
50852;BME280;43953;45.508;-122.806;2023-08-06T01:58:01;101065.31;;;27.62;46.12
50852;BME280;43953;45.508;-122.806;2023-08-06T01:58:33;101054.25;;;27.62;46.39
50852;BME280;43953;45.508;-122.806;2023-08-06T01:59:04;101055.06;;;27.62;46.39
50852;BME280;43953;45.508;-122.806;2023-08-06T01:59:36;101056.72;;;27.63;46.35
50852;BME280;43953;45.508;-122.806;2023-08-06T02:00:08;101058.34;;;27.64;46.42
50852;BME280;43953;45.508;-122.806;2023-08-06T02:00:40;101057.53;;;27.64;46.23
50852;BME280;43953;45.508;-122.806;2023-08-06T02:01:12;101061.13;;;27.64;45.82
50852;BME280;43953;45.508;-122.806;2023-08-06T02:01:45;101059.16;;;27.65;45.94
50852;BME280;43953;45.508;-122.806;2023-08-06T02:02:16;101059.97;;;27.65;45.86
50852;BME280;43953;45.508;-122.806;2023-08-06T02:02:48;101054.44;;;27.65;45.44
50852;BME280;43953;45.508;-122.806;2023-08-06T02:03:20;101061.94;;;27.65;45.20
50852;BME280;43953;45.508;-122.806;2023-08-06T02:03:51;101059.16;;;27.65;45.70
50852;BME280;43953;45.508;-122.806;2023-08-06T02:04:23;101059.97;;;27.65;44.61
50852;BME280;43953;45.508;-122.806;2023-08-06T02:04:55;101055.28;;;27.66;44.63
50852;BME280;43953;45.508;-122.806;2023-08-06T02:05:26;101056.09;;;27.66;44.17
50852;BME280;43953;45.508;-122.806;2023-08-06T02:05:58;101056.09;;;27.66;43.79
50852;BME280;43953;45.508;-122.806;2023-08-06T02:06:30;101053.34;;;27.66;44.00
50852;BME280;43953;45.508;-122.806;2023-08-06T02:07:01;101058.88;;;27.66;43.51
50852;BME280;43953;45.508;-122.806;2023-08-06T02:07:33;101058.88;;;27.66;43.58
50852;BME280;43953;45.508;-122.806;2023-08-06T02:08:05;101056.09;;;27.66;43.98
50852;BME280;43953;45.508;-122.806;2023-08-06T02:08:37;101061.63;;;27.66;44.22
50852;BME280;43953;45.508;-122.806;2023-08-06T02:09:09;101055.28;;;27.66;44.40
50852;BME280;43953;45.508;-122.806;2023-08-06T02:09:41;101054.44;;;27.65;44.69
50852;BME280;43953;45.508;-122.806;2023-08-06T02:10:13;101055.28;;;27.66;43.75
50852;BME280;43953;45.508;-122.806;2023-08-06T02:10:45;101048.91;;;27.65;43.60
50852;BME280;43953;45.508;-122.806;2023-08-06T02:11:17;101052.81;;;27.64;43.58
50852;BME280;43953;45.508;-122.806;2023-08-06T02:11:49;101058.34;;;27.64;43.85
50852;BME280;43953;45.508;-122.806;2023-08-06T02:12:21;101057.22;;;27.65;43.32
50852;BME280;43953;45.508;-122.806;2023-08-06T02:12:52;101058.34;;;27.64;43.79
50852;BME280;43953;45.508;-122.806;2023-08-06T02:13:24;101059.97;;;27.65;43.66
50852;BME280;43953;45.508;-122.806;2023-08-06T02:13:56;101058.34;;;27.64;43.27
50852;BME280;43953;45.508;-122.806;2023-08-06T02:14:28;101056.41;;;27.65;43.32
50852;BME280;43953;45.508;-122.806;2023-08-06T02:14:59;101061.13;;;27.64;43.38
50852;BME280;43953;45.508;-122.806;2023-08-06T02:15:31;101056.41;;;27.65;43.10
50852;BME280;43953;45.508;-122.806;2023-08-06T02:16:03;101063.88;;;27.64;42.87
50852;BME280;43953;45.508;-122.806;2023-08-06T02:16:35;101059.50;;;27.63;42.85
50852;BME280;43953;45.508;-122.806;2023-08-06T02:17:06;101053.16;;;27.63;42.94
50852;BME280;43953;45.508;-122.806;2023-08-06T02:17:38;101055.06;;;27.62;42.37
50852;BME280;43953;45.508;-122.806;2023-08-06T02:18:10;101053.44;;;27.61;42.17
50852;BME280;43953;45.508;-122.806;2023-08-06T02:18:41;101047.91;;;27.61;42.25
50852;BME280;43953;45.508;-122.806;2023-08-06T02:19:13;101054.59;;;27.60;42.67
50852;BME280;43953;45.508;-122.806;2023-08-06T02:19:45;101050.19;;;27.59;42.25
50852;BME280;43953;45.508;-122.806;2023-08-06T02:20:16;101056.56;;;27.60;42.49
50852;BME280;43953;45.508;-122.806;2023-08-06T02:20:58;101061.25;;;27.59;42.76
50852;BME280;43953;45.508;-122.806;2023-08-06T02:21:30;101048.56;;;27.58;42.39
50852;BME280;43953;45.508;-122.806;2023-08-06T02:22:02;101054.09;;;27.58;41.95
50852;BME280;43953;45.508;-122.806;2023-08-06T02:22:34;101054.09;;;27.58;42.03
50852;BME280;43953;45.508;-122.806;2023-08-06T02:23:05;101054.91;;;27.59;42.30
50852;BME280;43953;45.508;-122.806;2023-08-06T02:23:37;101056.84;;;27.58;41.90
50852;BME280;43953;45.508;-122.806;2023-08-06T02:24:09;101054.09;;;27.58;41.77
50852;BME280;43953;45.508;-122.806;2023-08-06T02:24:40;101060.44;;;27.59;41.87
50852;BME280;43953;45.508;-122.806;2023-08-06T02:25:12;101058.47;;;27.59;42.53
50852;BME280;43953;45.508;-122.806;2023-08-06T02:25:44;101058.81;;;27.58;42.36
50852;BME280;43953;45.508;-122.806;2023-08-06T02:26:18;101061.56;;;27.58;42.00
50852;BME280;43953;45.508;-122.806;2023-08-06T02:26:49;101060.75;;;27.57;42.52
50852;BME280;43953;45.508;-122.806;2023-08-06T02:27:22;101069.06;;;27.57;42.47
50852;BME280;43953;45.508;-122.806;2023-08-06T02:27:54;101063.53;;;27.57;42.05
50852;BME280;43953;45.508;-122.806;2023-08-06T02:28:25;101058.81;;;27.58;42.36
50852;BME280;43953;45.508;-122.806;2023-08-06T02:28:57;101069.06;;;27.57;42.59
50852;BME280;43953;45.508;-122.806;2023-08-06T02:29:29;101069.06;;;27.57;42.38
50852;BME280;43953;45.508;-122.806;2023-08-06T02:30:01;101062.72;;;27.57;42.28
50852;BME280;43953;45.508;-122.806;2023-08-06T02:30:33;101063.53;;;27.57;42.63
50852;BME280;43953;45.508;-122.806;2023-08-06T02:31:05;101069.06;;;27.57;42.32
50852;BME280;43953;45.508;-122.806;2023-08-06T02:31:38;101062.38;;;27.58;42.11
50852;BME280;43953;45.508;-122.806;2023-08-06T02:32:09;101059.63;;;27.58;42.40
50852;BME280;43953;45.508;-122.806;2023-08-06T02:32:41;101061.25;;;27.59;42.29
50852;BME280;43953;45.508;-122.806;2023-08-06T02:33:13;101063.19;;;27.59;41.98
50852;BME280;43953;45.508;-122.806;2023-08-06T02:33:44;101062.91;;;27.60;42.58
50852;BME280;43953;45.508;-122.806;2023-08-06T02:34:16;101064.00;;;27.59;42.71
50852;BME280;43953;45.508;-122.806;2023-08-06T02:34:48;101064.53;;;27.61;42.67
50852;BME280;43953;45.508;-122.806;2023-08-06T02:35:19;101063.72;;;27.61;42.24
50852;BME280;43953;45.508;-122.806;2023-08-06T02:35:51;101066.47;;;27.61;42.29
50852;BME280;43953;45.508;-122.806;2023-08-06T02:36:29;101063.72;;;27.61;42.07
50852;BME280;43953;45.508;-122.806;2023-08-06T02:37:01;101070.06;;;27.61;41.60
50852;BME280;43953;45.508;-122.806;2023-08-06T02:37:34;101068.09;;;27.62;42.50
50852;BME280;43953;45.508;-122.806;2023-08-06T02:38:05;101068.91;;;27.62;42.35
50852;BME280;43953;45.508;-122.806;2023-08-06T02:38:37;101073.31;;;27.63;42.47
50852;BME280;43953;45.508;-122.806;2023-08-06T02:39:09;101079.66;;;27.64;42.49
50852;BME280;43953;45.508;-122.806;2023-08-06T02:39:41;101078.84;;;27.63;42.37
50852;BME280;43953;45.508;-122.806;2023-08-06T02:40:12;101078.84;;;27.63;42.16
50852;BME280;43953;45.508;-122.806;2023-08-06T02:40:45;101075.75;;;27.65;42.50
50852;BME280;43953;45.508;-122.806;2023-08-06T02:41:17;101074.94;;;27.64;42.65
50852;BME280;43953;45.508;-122.806;2023-08-06T02:41:48;101081.28;;;27.65;42.84
50852;BME280;43953;45.508;-122.806;2023-08-06T02:42:20;101081.28;;;27.65;42.23
50852;BME280;43953;45.508;-122.806;2023-08-06T02:42:52;101088.47;;;27.66;42.55
50852;BME280;43953;45.508;-122.806;2023-08-06T02:43:23;101075.75;;;27.65;42.50
50852;BME280;43953;45.508;-122.806;2023-08-06T02:43:55;101086.00;;;27.64;42.26
50852;BME280;43953;45.508;-122.806;2023-08-06T02:44:27;101076.56;;;27.65;42.19
50852;BME280;43953;45.508;-122.806;2023-08-06T02:44:59;101082.94;;;27.66;42.40
50852;BME280;43953;45.508;-122.806;2023-08-06T02:45:31;101083.75;;;27.66;42.36
50852;BME280;43953;45.508;-122.806;2023-08-06T02:46:03;101088.47;;;27.66;42.00
50852;BME280;43953;45.508;-122.806;2023-08-06T02:46:34;101080.47;;;27.64;42.21
50852;BME280;43953;45.508;-122.806;2023-08-06T02:47:06;101080.47;;;27.64;41.95
50852;BME280;43953;45.508;-122.806;2023-08-06T02:47:38;101086.00;;;27.64;42.03
50852;BME280;43953;45.508;-122.806;2023-08-06T02:48:09;101086.81;;;27.65;41.91
50852;BME280;43953;45.508;-122.806;2023-08-06T02:48:41;101085.19;;;27.64;41.79
50852;BME280;43953;45.508;-122.806;2023-08-06T02:49:13;101091.53;;;27.64;41.78
50852;BME280;43953;45.508;-122.806;2023-08-06T02:49:45;101083.25;;;27.64;41.96